Main page
METAR-TAF:

METAR-TAF

Airports :

Clayton J. Lloyd International Airport

Anguilla, Anguilla

latitude: 18-12-17N, longitude: 063-03-18W, elevation: 31 m

Current weather observation

The report was made 10 hours and 17 minutes ago, at 23:00 UTC
Wind 10 kt from the East/Southeast
Temperature 28°C
Humidity 84%
Pressure 1013 hPa
Visibility 10 km or more
Few clouds at a height of 2000 ft

METAR: TQPF 202300Z 11010KT 9999 FEW020 28/25 Q1013

Time: 05:17 (09:17 UTC)

Forecast

The report was made 16 hours and 17 minutes ago, at 17:00 UTC
Forecast valid from 20 at 18 UTC to 21 at 18 UTC
Wind 12 kt from the East/Southeast
Visibility 10 km or more
Scattered clouds at a height of 2200 ft

TAF: TQPF 201700Z 2018/2118 11012KT 9999 SCT022

Weather observations and forecasts of more than 4000 airports (METAR and TAF reports).

The available stations are represented by yellow and red dots on the map.

Hover mouse over dot to see the name of the station.

Then click to see weather observations and forecasts.

To change the map : click on the green buttons with a black cross to zoom in, on the green button with a dash to zoom out, or on the green arrows for adjacent maps.


METAR-TAF: